Time;durP1;ratioP1;P1;durP2;ratioP2;P2;SDS_P1;SDS_P2;PMS_P1;PMS_P2;Temp;Humidity;BMP_temperature;BMP_pressure;BME280_temperature;BME280_humidity;BME280_pressure;Samples;Min_cycle;Max_cycle;Signal;HPM_P1;HPM_P2
2022/11/16 00:02:09;;;;;;;2.78;0.70;;;;;;;;;;5008774;28;20087;-59
2022/11/16 00:04:36;;;;;;;2.72;0.70;;;;;;;;;;5009605;28;20149;-55
2022/11/16 00:07:02;;;;;;;2.80;0.80;;;;;;;;;;4992443;28;20032;-59
2022/11/16 00:09:30;;;;;;;2.75;0.85;;;;;;;;;;5006330;28;20165;-58
2022/11/16 00:12:00;;;;;;;3.25;0.90;;;;;;;;;;5003948;28;20060;-62
2022/11/16 00:14:28;;;;;;;3.28;1.00;;;;;;;;;;5005954;28;20048;-58
2022/11/16 00:16:55;;;;;;;2.35;0.90;;;;;;;;;;5008432;28;20038;-59
2022/11/16 00:19:22;;;;;;;5.20;1.00;;;;;;;;;;5005804;28;20105;-61
2022/11/16 00:21:48;;;;;;;2.85;1.00;;;;;;;;;;5008064;28;20037;-60
2022/11/16 00:24:16;;;;;;;7.80;1.00;;;;;;;;;;5012439;28;20084;-59
2022/11/16 00:26:43;;;;;;;4.05;0.80;;;;;;;;;;5009911;28;20056;-59
2022/11/16 00:29:20;;;;;;;3.53;1.05;;;;;;;;;;5007270;28;20092;-62
2022/11/16 00:31:47;;;;;;;2.58;0.80;;;;;;;;;;5006258;28;20087;-60
2022/11/16 00:34:13;;;;;;;2.78;1.00;;;;;;;;;;5013365;28;20034;-58
2022/11/16 00:36:40;;;;;;;2.20;0.80;;;;;;;;;;5008107;28;20034;-58
2022/11/16 00:39:10;;;;;;;3.08;1.00;;;;;;;;;;5007722;28;20091;-60
2022/11/16 00:41:37;;;;;;;3.75;1.10;;;;;;;;;;5007222;28;20041;-57
2022/11/16 00:44:03;;;;;;;2.55;0.80;;;;;;;;;;5010364;28;20811;-58
2022/11/16 00:46:30;;;;;;;5.70;1.05;;;;;;;;;;5008760;28;20083;-58
2022/11/16 00:48:56;;;;;;;6.32;1.17;;;;;;;;;;5008132;28;20084;-58
2022/11/16 00:51:23;;;;;;;2.60;0.80;;;;;;;;;;5007284;28;20049;-61
2022/11/16 00:53:50;;;;;;;1.65;0.57;;;;;;;;;;5008290;28;20410;-60
2022/11/16 00:56:16;;;;;;;2.70;1.00;;;;;;;;;;5015710;28;20042;-60
2022/11/16 00:58:43;;;;;;;3.88;1.10;;;;;;;;;;5008156;28;20042;-61
2022/11/16 01:01:11;;;;;;;8.38;1.20;;;;;;;;;;5009077;28;20458;-57
2022/11/16 01:03:38;;;;;;;2.38;0.85;;;;;;;;;;5010800;28;20056;-61
2022/11/16 01:06:05;;;;;;;2.50;0.80;;;;;;;;;;5010292;28;20056;-60
2022/11/16 01:08:33;;;;;;;2.88;1.02;;;;;;;;;;5008134;28;20148;-58
2022/11/16 01:12:07;;;;;;;2.92;0.90;;;;;;;;;;4995114;28;20034;-60
2022/11/16 01:13:46;;;;;;;2.63;1.00;;;;;;;;;;5005853;28;20049;-59
2022/11/16 01:16:14;;;;;;;2.55;0.88;;;;;;;;;;5007607;28;20103;-60
2022/11/16 01:18:40;;;;;;;2.08;0.80;;;;;;;;;;5007944;28;20120;-57
2022/11/16 01:21:07;;;;;;;3.45;1.08;;;;;;;;;;5011854;28;20095;-57
2022/11/16 01:23:34;;;;;;;2.53;0.80;;;;;;;;;;5010093;28;20824;-57
2022/11/16 01:26:00;;;;;;;2.30;0.90;;;;;;;;;;5013628;28;20053;-58
2022/11/16 01:28:30;;;;;;;3.75;0.90;;;;;;;;;;5013047;28;20084;-58
2022/11/16 01:30:57;;;;;;;2.60;0.80;;;;;;;;;;5012063;28;20335;-58
2022/11/16 01:33:23;;;;;;;2.80;0.82;;;;;;;;;;5010959;28;20135;-56
2022/11/16 01:35:50;;;;;;;2.80;0.93;;;;;;;;;;5011320;28;20041;-57
2022/11/16 01:38:17;;;;;;;2.72;1.00;;;;;;;;;;4998920;28;20677;-58
2022/11/16 01:40:44;;;;;;;2.95;0.90;;;;;;;;;;5009480;28;20040;-61
2022/11/16 01:43:17;;;;;;;3.15;1.17;;;;;;;;;;5011708;28;20038;-58
2022/11/16 01:45:45;;;;;;;3.30;1.10;;;;;;;;;;5011879;28;20128;-58
2022/11/16 01:48:14;;;;;;;5.00;1.17;;;;;;;;;;5006833;28;20473;-61
2022/11/16 01:50:41;;;;;;;4.68;1.10;;;;;;;;;;5012624;28;20041;-58
2022/11/16 01:53:08;;;;;;;3.83;1.10;;;;;;;;;;5010412;28;20557;-59
2022/11/16 01:55:36;;;;;;;4.68;1.00;;;;;;;;;;5009647;28;20590;-61
2022/11/16 01:58:04;;;;;;;2.38;0.80;;;;;;;;;;5009862;28;20269;-59
2022/11/16 02:00:30;;;;;;;2.85;1.00;;;;;;;;;;5008964;28;20053;-59
2022/11/16 02:02:57;;;;;;;3.00;0.90;;;;;;;;;;4998070;28;20037;-58
2022/11/16 02:05:29;;;;;;;2.72;0.80;;;;;;;;;;5011370;28;20053;-59
2022/11/16 02:10:55;;;;;;;2.40;0.82;;;;;;;;;;5010227;28;20161;-59
2022/11/16 02:13:34;;;;;;;2.97;1.02;;;;;;;;;;5009164;28;20679;-59
2022/11/16 02:16:07;;;;;;;3.60;0.88;;;;;;;;;;5011758;28;20057;-59
2022/11/16 02:18:38;;;;;;;2.17;0.75;;;;;;;;;;5010646;28;20045;-59
2022/11/16 02:21:08;;;;;;;3.65;0.93;;;;;;;;;;5010303;28;20533;-59
2022/11/16 02:23:34;;;;;;;2.88;0.98;;;;;;;;;;5008459;28;20087;-59
2022/11/16 02:26:01;;;;;;;2.58;0.85;;;;;;;;;;5011024;28;20911;-59
2022/11/16 02:28:43;;;;;;;3.53;1.08;;;;;;;;;;5010261;28;20444;-58
2022/11/16 02:31:12;;;;;;;2.53;0.65;;;;;;;;;;5009135;28;21013;-61
2022/11/16 02:33:40;;;;;;;2.60;0.77;;;;;;;;;;5009240;28;20054;-60
2022/11/16 02:36:09;;;;;;;2.80;1.00;;;;;;;;;;5011892;28;20831;-58
2022/11/16 02:38:38;;;;;;;2.30;0.90;;;;;;;;;;5008536;28;20580;-57
2022/11/16 02:41:08;;;;;;;2.35;0.70;;;;;;;;;;5009737;28;20182;-64
2022/11/16 02:43:42;;;;;;;2.28;0.73;;;;;;;;;;5007727;28;20057;-59
2022/11/16 02:46:12;;;;;;;2.13;0.80;;;;;;;;;;5024193;28;20181;-58
2022/11/16 02:48:42;;;;;;;2.40;0.80;;;;;;;;;;5008964;28;20050;-58
2022/11/16 02:51:09;;;;;;;4.05;0.82;;;;;;;;;;5010810;28;20041;-55
2022/11/16 02:53:42;;;;;;;1.05;0.40;;;;;;;;;;5008771;28;20041;-62
2022/11/16 02:56:11;;;;;;;3.20;0.85;;;;;;;;;;5008739;28;20070;-60
2022/11/16 02:58:38;;;;;;;2.75;0.88;;;;;;;;;;5008768;28;20451;-60
2022/11/16 03:01:31;;;;;;;2.22;0.77;;;;;;;;;;5008776;28;20045;-58
2022/11/16 03:04:14;;;;;;;1.67;0.60;;;;;;;;;;5004443;28;20555;-60
2022/11/16 03:06:42;;;;;;;1.58;0.60;;;;;;;;;;5009209;28;20033;-59
2022/11/16 03:09:11;;;;;;;4.25;0.75;;;;;;;;;;5011114;28;20667;-60
2022/11/16 03:11:59;;;;;;;1.98;0.70;;;;;;;;;;5009509;28;20037;-61
2022/11/16 03:14:34;;;;;;;1.80;0.70;;;;;;;;;;5009038;28;20061;-63
2022/11/16 03:17:02;;;;;;;1.73;0.60;;;;;;;;;;5011319;28;20638;-59
2022/11/16 03:19:47;;;;;;;3.38;1.00;;;;;;;;;;5007782;28;20049;-59
2022/11/16 03:22:17;;;;;;;4.35;1.00;;;;;;;;;;5008648;28;20072;-58
2022/11/16 03:24:44;;;;;;;5.45;1.02;;;;;;;;;;5008837;28;20056;-58
2022/11/16 03:27:10;;;;;;;3.13;0.93;;;;;;;;;;5007961;28;20502;-59
2022/11/16 03:29:52;;;;;;;1.45;0.52;;;;;;;;;;5007977;28;20488;-59
2022/11/16 03:32:21;;;;;;;2.90;0.95;;;;;;;;;;4996423;28;20049;-59
2022/11/16 03:34:54;;;;;;;2.78;0.88;;;;;;;;;;5010165;28;20629;-58
2022/11/16 03:37:22;;;;;;;2.20;0.85;;;;;;;;;;5010140;28;20048;-59
2022/11/16 03:39:48;;;;;;;2.97;0.90;;;;;;;;;;5009778;28;20045;-62
2022/11/16 03:42:16;;;;;;;1.67;0.65;;;;;;;;;;5007730;28;20034;-60
2022/11/16 03:44:44;;;;;;;2.67;1.20;;;;;;;;;;5009115;28;20104;-58
2022/11/16 03:47:11;;;;;;;3.03;1.33;;;;;;;;;;4996631;28;20136;-59
2022/11/16 03:49:38;;;;;;;3.30;0.88;;;;;;;;;;5011475;28;20042;-60
2022/11/16 03:52:05;;;;;;;1.33;0.52;;;;;;;;;;5003104;28;20040;-57
2022/11/16 03:54:31;;;;;;;2.92;0.90;;;;;;;;;;5013570;28;20061;-59
2022/11/16 03:56:58;;;;;;;3.17;1.25;;;;;;;;;;5009734;28;20045;-56
2022/11/16 03:59:25;;;;;;;2.85;1.00;;;;;;;;;;5008644;28;20554;-57
2022/11/16 04:01:51;;;;;;;3.25;1.00;;;;;;;;;;5008364;28;20040;-57
2022/11/16 04:26:18;;;;;;;3.20;1.15;;;;;;;;;;5007857;28;20497;-65
2022/11/16 04:28:44;;;;;;;3.28;1.00;;;;;;;;;;5008990;28;20104;-57
2022/11/16 04:39:26;;;;;;;3.22;1.23;;;;;;;;;;5008088;28;20060;-58
2022/11/16 04:42:14;;;;;;;2.65;0.98;;;;;;;;;;5008929;28;20160;-57
2022/11/16 04:47:26;;;;;;;2.75;1.02;;;;;;;;;;4982252;28;20052;-59
2022/11/16 04:49:52;;;;;;;3.92;1.00;;;;;;;;;;5005357;28;20129;-59
2022/11/16 04:52:19;;;;;;;2.80;0.98;;;;;;;;;;5007395;28;20461;-59
2022/11/16 04:54:46;;;;;;;2.85;1.00;;;;;;;;;;5009933;28;20041;-56
2022/11/16 04:57:12;;;;;;;3.42;1.10;;;;;;;;;;5000049;28;20111;-58
2022/11/16 04:59:39;;;;;;;3.70;1.23;;;;;;;;;;5012530;28;20128;-58
2022/11/16 05:02:08;;;;;;;3.33;1.00;;;;;;;;;;4998977;28;20176;-59
2022/11/16 05:04:39;;;;;;;2.55;0.90;;;;;;;;;;5011888;28;20052;-61
2022/11/16 05:07:10;;;;;;;3.15;1.25;;;;;;;;;;5010531;28;20038;-63
2022/11/16 05:09:44;;;;;;;3.65;1.10;;;;;;;;;;5015084;28;20042;-62
2022/11/16 05:12:13;;;;;;;2.95;1.13;;;;;;;;;;5011420;28;20048;-59
2022/11/16 05:14:41;;;;;;;4.28;1.60;;;;;;;;;;5012038;28;20046;-59
2022/11/16 05:17:07;;;;;;;4.32;1.42;;;;;;;;;;5011899;28;20544;-60
2022/11/16 05:22:19;;;;;;;4.43;1.80;;;;;;;;;;5010954;28;21042;-61
2022/11/16 05:24:46;;;;;;;5.55;2.00;;;;;;;;;;5010634;28;20115;-61
2022/11/16 05:27:14;;;;;;;5.65;1.65;;;;;;;;;;5012300;28;20072;-59
2022/11/16 05:29:42;;;;;;;3.97;1.40;;;;;;;;;;5010243;28;20421;-58
2022/11/16 05:32:11;;;;;;;4.13;1.30;;;;;;;;;;5010862;28;20025;-59
2022/11/16 05:34:39;;;;;;;3.47;1.17;;;;;;;;;;5010903;28;22129;-59
2022/11/16 05:37:06;;;;;;;2.83;0.90;;;;;;;;;;5013460;28;20418;-58
2022/11/16 05:39:33;;;;;;;4.03;1.30;;;;;;;;;;5010209;28;20034;-57
2022/11/16 05:42:01;;;;;;;3.20;1.13;;;;;;;;;;5011110;28;20042;-57
2022/11/16 05:44:28;;;;;;;4.78;1.30;;;;;;;;;;5009346;28;20037;-60
2022/11/16 05:46:56;;;;;;;3.80;1.20;;;;;;;;;;5011268;28;20579;-57
2022/11/16 05:49:30;;;;;;;4.30;1.25;;;;;;;;;;5010776;28;20041;-57
2022/11/16 05:51:57;;;;;;;2.80;0.90;;;;;;;;;;5011190;28;20100;-57
2022/11/16 05:54:25;;;;;;;3.05;1.00;;;;;;;;;;5012185;28;20041;-58
2022/11/16 05:56:52;;;;;;;3.28;1.10;;;;;;;;;;5011876;28;20453;-57
2022/11/16 05:59:20;;;;;;;3.05;1.02;;;;;;;;;;5008362;28;20037;-56
2022/11/16 06:01:48;;;;;;;3.15;1.10;;;;;;;;;;5010073;28;20094;-58
2022/11/16 06:04:15;;;;;;;2.20;0.90;;;;;;;;;;5010051;28;20057;-56
2022/11/16 06:06:45;;;;;;;4.32;1.63;;;;;;;;;;5010481;28;20037;-58
2022/11/16 06:09:16;;;;;;;4.75;1.23;;;;;;;;;;4998303;28;20198;-58
2022/11/16 06:11:44;;;;;;;3.95;1.10;;;;;;;;;;5009166;28;20073;-58
2022/11/16 06:14:11;;;;;;;2.80;1.10;;;;;;;;;;5011159;28;20046;-59
2022/11/16 06:16:39;;;;;;;4.72;1.40;;;;;;;;;;5010874;28;20563;-58
2022/11/16 06:19:14;;;;;;;3.22;1.20;;;;;;;;;;5012264;28;20055;-58
2022/11/16 06:21:43;;;;;;;4.22;1.10;;;;;;;;;;4993676;28;20100;-58
2022/11/16 06:24:12;;;;;;;3.83;1.30;;;;;;;;;;5011052;28;20072;-58
2022/11/16 06:26:39;;;;;;;3.83;1.23;;;;;;;;;;5008026;28;20653;-59
2022/11/16 06:29:06;;;;;;;3.40;1.10;;;;;;;;;;5010248;28;20037;-58
2022/11/16 06:31:36;;;;;;;3.88;1.23;;;;;;;;;;5009401;28;20821;-57
2022/11/16 06:34:06;;;;;;;3.22;1.20;;;;;;;;;;5009501;28;20044;-58
2022/11/16 06:36:33;;;;;;;3.35;1.13;;;;;;;;;;5008512;28;20138;-58
2022/11/16 06:39:01;;;;;;;4.30;1.25;;;;;;;;;;5009679;28;20041;-55
2022/11/16 06:41:31;;;;;;;4.85;1.63;;;;;;;;;;5008876;28;20041;-58
2022/11/16 06:44:03;;;;;;;2.38;0.95;;;;;;;;;;5010221;28;20507;-58
2022/11/16 06:46:32;;;;;;;3.50;1.20;;;;;;;;;;4998711;28;20065;-58
2022/11/16 06:48:59;;;;;;;3.75;1.23;;;;;;;;;;5009222;28;20168;-58
2022/11/16 06:51:27;;;;;;;3.47;1.02;;;;;;;;;;5009020;28;20091;-56
2022/11/16 06:53:54;;;;;;;2.25;0.90;;;;;;;;;;5010577;28;20034;-57
2022/11/16 06:56:22;;;;;;;4.80;1.77;;;;;;;;;;5009062;28;20066;-57
2022/11/16 06:58:49;;;;;;;3.60;1.15;;;;;;;;;;5009785;28;20060;-56
2022/11/16 07:01:16;;;;;;;3.95;1.27;;;;;;;;;;5008894;28;20378;-58
2022/11/16 07:03:44;;;;;;;2.90;0.98;;;;;;;;;;5008199;28;20040;-62
2022/11/16 07:06:16;;;;;;;2.90;0.90;;;;;;;;;;5008842;28;20183;-59
2022/11/16 07:08:47;;;;;;;3.53;0.90;;;;;;;;;;5009839;28;20897;-57
2022/11/16 07:11:19;;;;;;;2.63;0.80;;;;;;;;;;5008816;28;20111;-54
2022/11/16 07:13:48;;;;;;;2.38;0.90;;;;;;;;;;5010301;28;20059;-58
2022/11/16 07:16:15;;;;;;;3.55;1.08;;;;;;;;;;5009597;28;20124;-56
2022/11/16 07:18:42;;;;;;;4.65;1.00;;;;;;;;;;5024207;28;20626;-58
2022/11/16 07:21:11;;;;;;;3.55;1.10;;;;;;;;;;5009228;28;21076;-57
2022/11/16 07:23:39;;;;;;;2.35;0.90;;;;;;;;;;5011872;28;20050;-57
2022/11/16 07:26:07;;;;;;;6.35;1.05;;;;;;;;;;5009258;28;20065;-59
2022/11/16 07:28:35;;;;;;;3.17;1.20;;;;;;;;;;5007645;28;20654;-56
2022/11/16 07:31:03;;;;;;;3.13;1.05;;;;;;;;;;5007531;28;20037;-59
2022/11/16 07:33:33;;;;;;;2.80;1.00;;;;;;;;;;5010145;28;20504;-58
2022/11/16 07:36:08;;;;;;;3.00;0.93;;;;;;;;;;5008544;28;20103;-56
2022/11/16 07:38:35;;;;;;;3.00;1.00;;;;;;;;;;5008176;28;20143;-58
2022/11/16 07:41:04;;;;;;;2.80;0.90;;;;;;;;;;5023608;28;20064;-57
2022/11/16 07:43:34;;;;;;;3.42;1.10;;;;;;;;;;5006979;28;20115;-54
2022/11/16 07:46:04;;;;;;;3.95;1.20;;;;;;;;;;5008744;28;20045;-60
2022/11/16 07:48:35;;;;;;;2.50;0.80;;;;;;;;;;5008726;28;20037;-58
2022/11/16 07:51:06;;;;;;;3.17;0.95;;;;;;;;;;5009974;28;20074;-54
2022/11/16 07:53:35;;;;;;;2.78;1.05;;;;;;;;;;5011439;28;20100;-61
2022/11/16 07:56:03;;;;;;;3.30;1.05;;;;;;;;;;5009433;28;20034;-61
2022/11/16 07:58:32;;;;;;;3.70;1.30;;;;;;;;;;5008091;28;20037;-56
2022/11/16 08:01:05;;;;;;;4.00;1.13;;;;;;;;;;5008612;28;20037;-58
2022/11/16 08:03:32;;;;;;;3.22;1.10;;;;;;;;;;5007532;28;20050;-60
2022/11/16 08:06:18;;;;;;;3.05;0.98;;;;;;;;;;5008788;28;20103;-57
2022/11/16 08:08:44;;;;;;;2.67;1.00;;;;;;;;;;5007632;28;20453;-57
2022/11/16 08:11:12;;;;;;;3.22;1.17;;;;;;;;;;5009162;28;20038;-57
2022/11/16 08:13:39;;;;;;;3.80;1.10;;;;;;;;;;5007541;28;21240;-57
2022/11/16 08:16:08;;;;;;;3.83;1.27;;;;;;;;;;5009244;28;20044;-63
2022/11/16 08:18:35;;;;;;;3.08;1.00;;;;;;;;;;5007813;28;20038;-62
2022/11/16 08:21:01;;;;;;;2.65;1.17;;;;;;;;;;5007978;28;20038;-58
2022/11/16 08:23:29;;;;;;;3.85;1.40;;;;;;;;;;5008634;28;20061;-59
2022/11/16 08:25:59;;;;;;;3.30;1.33;;;;;;;;;;5008205;28;20050;-55
2022/11/16 08:28:26;;;;;;;4.10;1.40;;;;;;;;;;5004397;28;20200;-56
2022/11/16 08:30:53;;;;;;;3.35;1.40;;;;;;;;;;5007474;28;20069;-59
2022/11/16 08:33:20;;;;;;;4.93;1.23;;;;;;;;;;5007234;28;20038;-61
2022/11/16 08:35:47;;;;;;;4.57;1.50;;;;;;;;;;5009596;28;20043;-57
2022/11/16 08:38:14;;;;;;;4.43;1.55;;;;;;;;;;5007820;28;20073;-58
2022/11/16 08:40:41;;;;;;;3.85;1.42;;;;;;;;;;5006140;28;20056;-61
2022/11/16 08:43:09;;;;;;;3.83;1.50;;;;;;;;;;5009972;28;20060;-58
2022/11/16 08:45:36;;;;;;;4.55;1.67;;;;;;;;;;5008202;28;20056;-59
2022/11/16 08:48:03;;;;;;;6.68;1.60;;;;;;;;;;5007908;28;20052;-58
2022/11/16 08:50:30;;;;;;;4.70;1.65;;;;;;;;;;5007031;28;20052;-56
2022/11/16 08:52:57;;;;;;;4.00;1.63;;;;;;;;;;5006891;28;20049;-58
2022/11/16 08:55:24;;;;;;;3.30;1.60;;;;;;;;;;5006828;28;20417;-60
2022/11/16 08:57:51;;;;;;;5.57;1.65;;;;;;;;;;5008120;28;20038;-62
2022/11/16 09:00:18;;;;;;;5.35;2.05;;;;;;;;;;5008570;28;20186;-64
2022/11/16 09:02:44;;;;;;;4.30;1.83;;;;;;;;;;5006383;28;20030;-59
2022/11/16 09:05:11;;;;;;;4.03;1.70;;;;;;;;;;5006771;28;20104;-58
2022/11/16 09:07:39;;;;;;;6.85;1.80;;;;;;;;;;5006878;28;20170;-58
2022/11/16 09:10:06;;;;;;;3.83;1.80;;;;;;;;;;5007759;28;20029;-61
2022/11/16 09:12:36;;;;;;;4.22;1.70;;;;;;;;;;5005877;28;20049;-57
2022/11/16 09:15:03;;;;;;;3.90;1.52;;;;;;;;;;5006840;28;20030;-58
2022/11/16 09:17:30;;;;;;;7.80;2.08;;;;;;;;;;5008176;28;20041;-61
2022/11/16 09:19:57;;;;;;;6.57;1.83;;;;;;;;;;5007422;28;20029;-58
2022/11/16 09:22:23;;;;;;;3.65;1.60;;;;;;;;;;5006144;28;20073;-61
2022/11/16 09:24:50;;;;;;;4.68;1.88;;;;;;;;;;5008156;28;20065;-58
2022/11/16 09:27:16;;;;;;;5.63;2.25;;;;;;;;;;5008649;28;20077;-59
2022/11/16 09:29:43;;;;;;;5.53;2.05;;;;;;;;;;5005950;28;20139;-58
2022/11/16 09:32:09;;;;;;;6.78;2.58;;;;;;;;;;5007441;28;20034;-59
2022/11/16 09:34:36;;;;;;;5.32;2.63;;;;;;;;;;5007679;28;20042;-58
2022/11/16 09:37:03;;;;;;;6.28;3.13;;;;;;;;;;5011385;28;20066;-58
2022/11/16 09:39:31;;;;;;;6.40;2.60;;;;;;;;;;5007359;28;20042;-58
2022/11/16 09:42:16;;;;;;;7.10;2.35;;;;;;;;;;5010148;28;20477;-60
2022/11/16 09:44:45;;;;;;;7.05;3.08;;;;;;;;;;5010876;28;20069;-57
2022/11/16 09:47:20;;;;;;;6.35;2.80;;;;;;;;;;5008981;28;20042;-64
2022/11/16 09:49:54;;;;;;;7.20;2.70;;;;;;;;;;5000557;28;20160;-65
2022/11/16 09:52:20;;;;;;;4.40;2.10;;;;;;;;;;5011720;28;20076;-66
2022/11/16 09:54:48;;;;;;;5.97;2.65;;;;;;;;;;5011980;28;20580;-67
2022/11/16 09:57:16;;;;;;;8.02;2.92;;;;;;;;;;5012453;28;21891;-67
2022/11/16 09:59:48;;;;;;;8.45;3.25;;;;;;;;;;5010327;28;20041;-66
2022/11/16 10:02:14;;;;;;;5.10;2.60;;;;;;;;;;5010677;28;20128;-66
2022/11/16 10:04:53;;;;;;;5.90;2.90;;;;;;;;;;5010848;28;20526;-65
2022/11/16 10:07:23;;;;;;;7.07;2.80;;;;;;;;;;5013110;28;20048;-66
2022/11/16 10:09:49;;;;;;;7.88;3.33;;;;;;;;;;5012222;28;20072;-65
2022/11/16 10:12:19;;;;;;;10.05;3.30;;;;;;;;;;5012488;28;20041;-66
2022/11/16 10:14:46;;;;;;;9.07;3.47;;;;;;;;;;5012626;28;21166;-65
2022/11/16 10:17:31;;;;;;;7.60;3.40;;;;;;;;;;5012032;28;20169;-66
2022/11/16 10:20:12;;;;;;;8.93;3.78;;;;;;;;;;5010154;28;20034;-66
2022/11/16 10:22:42;;;;;;;11.55;3.78;;;;;;;;;;5008306;28;20045;-65
2022/11/16 10:25:14;;;;;;;9.45;3.63;;;;;;;;;;5010070;28;20037;-64
2022/11/16 10:27:50;;;;;;;9.77;3.63;;;;;;;;;;5008972;28;20081;-65
2022/11/16 10:30:18;;;;;;;10.57;4.20;;;;;;;;;;5014673;28;20049;-64
2022/11/16 10:32:51;;;;;;;9.18;4.28;;;;;;;;;;5009513;28;20206;-64
2022/11/16 10:35:22;;;;;;;10.65;3.92;;;;;;;;;;5011148;28;20068;-64
2022/11/16 10:37:49;;;;;;;11.50;4.45;;;;;;;;;;5009752;28;20165;-65
2022/11/16 10:40:18;;;;;;;10.30;4.93;;;;;;;;;;5009282;28;20246;-65
2022/11/16 10:42:47;;;;;;;13.85;5.25;;;;;;;;;;5009964;28;20080;-64
2022/11/16 10:45:19;;;;;;;11.35;4.78;;;;;;;;;;5010380;28;20057;-65
2022/11/16 10:47:53;;;;;;;13.70;5.25;;;;;;;;;;4996872;28;20336;-65
2022/11/16 10:50:22;;;;;;;10.20;5.20;;;;;;;;;;5010761;28;20061;-66
2022/11/16 10:52:49;;;;;;;15.77;6.10;;;;;;;;;;5010733;28;20555;-66
2022/11/16 10:55:16;;;;;;;13.93;5.97;;;;;;;;;;5011340;28;20046;-65
2022/11/16 10:57:56;;;;;;;10.75;6.00;;;;;;;;;;5011903;28;20038;-66
2022/11/16 11:00:42;;;;;;;14.20;6.43;;;;;;;;;;5011420;28;20403;-66
2022/11/16 11:03:10;;;;;;;16.42;6.72;;;;;;;;;;5012146;28;20088;-66
2022/11/16 11:05:51;;;;;;;18.55;6.65;;;;;;;;;;5017011;28;20083;-67
2022/11/16 11:08:37;;;;;;;14.07;6.80;;;;;;;;;;5015755;28;20073;-66
2022/11/16 11:14:14;;;;;;;17.80;6.22;;;;;;;;;;5013065;28;20080;-67
2022/11/16 11:16:41;;;;;;;13.38;7.00;;;;;;;;;;5013722;28;20099;-66
2022/11/16 11:19:24;;;;;;;13.82;6.13;;;;;;;;;;5011743;28;20044;-66
2022/11/16 11:21:55;;;;;;;17.35;6.65;;;;;;;;;;5009670;28;20524;-67
2022/11/16 11:24:21;;;;;;;16.08;6.57;;;;;;;;;;5010238;28;20060;-67
2022/11/16 11:26:52;;;;;;;13.50;6.30;;;;;;;;;;5010673;28;20048;-68
2022/11/16 11:29:25;;;;;;;24.00;6.28;;;;;;;;;;5009768;28;20049;-67
2022/11/16 11:31:59;;;;;;;15.20;5.85;;;;;;;;;;5010390;28;20045;-68
2022/11/16 11:34:28;;;;;;;13.82;6.15;;;;;;;;;;5009818;28;20041;-67
2022/11/16 11:36:55;;;;;;;12.85;5.85;;;;;;;;;;5010374;28;20076;-66
2022/11/16 11:39:21;;;;;;;13.10;5.97;;;;;;;;;;5012052;28;20572;-68
2022/11/16 11:42:20;;;;;;;15.07;5.30;;;;;;;;;;5008246;28;21378;-67
2022/11/16 11:44:50;;;;;;;12.98;5.70;;;;;;;;;;4986459;28;20080;-67
2022/11/16 11:47:35;;;;;;;12.32;5.53;;;;;;;;;;5009718;28;20050;-66
2022/11/16 11:50:21;;;;;;;11.77;4.43;;;;;;;;;;5007732;28;20104;-67
2022/11/16 11:53:06;;;;;;;9.75;4.47;;;;;;;;;;5010844;28;20514;-67
2022/11/16 11:55:33;;;;;;;11.35;4.30;;;;;;;;;;5009887;28;20454;-68
2022/11/16 11:58:01;;;;;;;8.98;4.35;;;;;;;;;;5010240;28;20128;-68
2022/11/16 12:00:33;;;;;;;9.55;3.67;;;;;;;;;;5008001;28;20117;-68
2022/11/16 12:03:22;;;;;;;8.13;3.38;;;;;;;;;;5007450;28;20037;-68
2022/11/16 12:06:07;;;;;;;5.88;2.88;;;;;;;;;;5008834;28;20060;-68
2022/11/16 12:08:43;;;;;;;8.25;3.33;;;;;;;;;;5009249;28;20037;-68
2022/11/16 12:11:22;;;;;;;7.32;3.08;;;;;;;;;;4999284;28;20041;-67
2022/11/16 12:14:08;;;;;;;6.25;2.80;;;;;;;;;;5011329;28;20124;-69
2022/11/16 12:16:44;;;;;;;6.00;1.92;;;;;;;;;;5008370;28;20041;-67
2022/11/16 12:19:14;;;;;;;5.45;2.00;;;;;;;;;;5008487;28;20099;-67
2022/11/16 12:21:53;;;;;;;4.40;1.67;;;;;;;;;;5006618;28;20545;-68
2022/11/16 12:24:19;;;;;;;5.18;1.50;;;;;;;;;;5007777;28;20418;-68
2022/11/16 12:27:02;;;;;;;3.50;1.30;;;;;;;;;;5009082;28;20466;-68
2022/11/16 12:29:31;;;;;;;3.45;1.40;;;;;;;;;;5007849;28;21893;-68
2022/11/16 12:32:16;;;;;;;2.83;1.10;;;;;;;;;;5009418;28;20174;-67
2022/11/16 12:34:52;;;;;;;3.35;1.13;;;;;;;;;;5009229;28;20042;-67
2022/11/16 12:37:22;;;;;;;5.47;0.90;;;;;;;;;;5008853;28;20045;-67
2022/11/16 12:39:48;;;;;;;2.45;0.90;;;;;;;;;;5007193;28;20080;-66
2022/11/16 12:42:15;;;;;;;3.20;1.20;;;;;;;;;;5008327;28;20041;-67
2022/11/16 12:44:53;;;;;;;4.63;1.40;;;;;;;;;;5007411;28;20049;-68
2022/11/16 12:47:28;;;;;;;3.10;1.10;;;;;;;;;;5007034;28;20076;-69
2022/11/16 12:50:00;;;;;;;2.90;1.00;;;;;;;;;;5007804;28;20148;-68
2022/11/16 12:52:33;;;;;;;2.70;1.00;;;;;;;;;;5008279;28;20528;-68
2022/11/16 12:55:15;;;;;;;2.67;0.90;;;;;;;;;;5009201;28;20068;-67
2022/11/16 12:58:04;;;;;;;2.30;0.80;;;;;;;;;;5008928;28;20037;-67
2022/11/16 13:00:34;;;;;;;2.60;1.00;;;;;;;;;;5002441;28;20049;-67
2022/11/16 13:03:20;;;;;;;3.00;1.02;;;;;;;;;;5007309;28;20034;-67
2022/11/16 13:05:47;;;;;;;2.67;0.85;;;;;;;;;;5006230;28;20064;-67
2022/11/16 13:08:13;;;;;;;3.47;1.20;;;;;;;;;;5009128;28;20049;-68
2022/11/16 13:10:42;;;;;;;2.88;1.00;;;;;;;;;;5008928;28;20133;-67
2022/11/16 13:13:29;;;;;;;2.90;0.93;;;;;;;;;;5010543;28;20038;-68
2022/11/16 13:15:57;;;;;;;3.45;1.20;;;;;;;;;;5011480;28;20050;-66
2022/11/16 13:18:25;;;;;;;2.50;0.88;;;;;;;;;;5011890;28;20499;-66
2022/11/16 13:21:12;;;;;;;2.67;0.98;;;;;;;;;;5013755;28;20046;-67
2022/11/16 13:24:00;;;;;;;1.98;0.80;;;;;;;;;;5010735;28;20041;-67
2022/11/16 13:26:30;;;;;;;2.05;0.80;;;;;;;;;;5010401;28;20122;-67
2022/11/16 13:29:06;;;;;;;2.47;0.93;;;;;;;;;;5014556;28;20229;-67
2022/11/16 13:31:42;;;;;;;3.83;1.20;;;;;;;;;;5015783;28;20033;-69
2022/11/16 13:34:38;;;;;;;2.97;0.80;;;;;;;;;;5015040;28;20052;-69
2022/11/16 13:37:43;;;;;;;2.75;1.15;;;;;;;;;;4997379;28;20045;-68
2022/11/16 13:40:13;;;;;;;2.53;1.05;;;;;;;;;;4943202;29;20504;-68
2022/11/16 13:42:58;;;;;;;2.85;1.13;;;;;;;;;;4940943;29;20101;-68
2022/11/16 13:45:26;;;;;;;4.80;1.40;;;;;;;;;;4983566;28;20049;-67
2022/11/16 13:47:54;;;;;;;2.17;0.90;;;;;;;;;;5012658;28;20033;-66
2022/11/16 13:50:22;;;;;;;1.77;0.70;;;;;;;;;;5012358;28;21009;-66
2022/11/16 13:52:51;;;;;;;2.60;1.02;;;;;;;;;;5013480;28;20044;-67
2022/11/16 13:55:31;;;;;;;1.75;0.60;;;;;;;;;;5011857;28;21664;-67
2022/11/16 13:57:59;;;;;;;2.90;1.10;;;;;;;;;;5012358;28;20622;-67
2022/11/16 14:00:35;;;;;;;5.05;1.10;;;;;;;;;;4982128;28;20036;-67
2022/11/16 14:03:28;;;;;;;4.40;1.25;;;;;;;;;;5010367;28;20049;-66
2022/11/16 14:05:54;;;;;;;2.92;1.10;;;;;;;;;;5004919;28;20042;-66
2022/11/16 14:08:24;;;;;;;2.67;1.00;;;;;;;;;;5010529;28;20048;-66
2022/11/16 14:10:50;;;;;;;4.50;1.20;;;;;;;;;;5013295;28;20079;-65
2022/11/16 14:13:36;;;;;;;2.78;1.20;;;;;;;;;;5012049;28;20053;-66
2022/11/16 14:16:21;;;;;;;2.15;0.80;;;;;;;;;;5006353;28;20092;-67
2022/11/16 14:18:47;;;;;;;2.67;1.20;;;;;;;;;;5009347;28;20447;-66
2022/11/16 14:21:17;;;;;;;2.13;0.77;;;;;;;;;;5008903;28;20045;-67
2022/11/16 14:24:02;;;;;;;2.42;0.95;;;;;;;;;;5009485;28;20060;-67
2022/11/16 14:26:51;;;;;;;3.78;1.42;;;;;;;;;;5006351;28;20072;-66
2022/11/16 14:29:19;;;;;;;2.30;0.90;;;;;;;;;;4992831;28;20410;-67
2022/11/16 14:31:51;;;;;;;3.22;1.20;;;;;;;;;;5009945;28;20467;-66
2022/11/16 14:34:20;;;;;;;3.40;1.33;;;;;;;;;;5010693;28;20045;-67
2022/11/16 14:36:47;;;;;;;3.13;1.20;;;;;;;;;;5008308;28;20044;-66
2022/11/16 14:39:37;;;;;;;3.67;1.85;;;;;;;;;;5008679;28;20053;-68
2022/11/16 14:42:05;;;;;;;2.97;1.23;;;;;;;;;;5000623;28;20037;-67
2022/11/16 14:44:34;;;;;;;3.25;1.25;;;;;;;;;;5009156;28;20049;-66
2022/11/16 14:47:02;;;;;;;2.38;1.02;;;;;;;;;;5005156;28;20082;-67
2022/11/16 14:49:32;;;;;;;3.65;1.08;;;;;;;;;;5009044;28;20033;-67
2022/11/16 14:52:00;;;;;;;5.15;1.30;;;;;;;;;;5011019;28;20503;-67
2022/11/16 14:54:29;;;;;;;3.35;1.40;;;;;;;;;;4996177;28;20061;-67
2022/11/16 14:57:04;;;;;;;5.55;2.00;;;;;;;;;;5009062;28;20118;-67
2022/11/16 14:59:31;;;;;;;3.50;1.55;;;;;;;;;;5002493;28;20057;-67
2022/11/16 15:02:00;;;;;;;3.70;1.50;;;;;;;;;;5004649;28;20171;-67
2022/11/16 15:04:27;;;;;;;5.03;1.90;;;;;;;;;;5007141;28;22077;-67
2022/11/16 15:06:58;;;;;;;3.72;1.60;;;;;;;;;;5011072;28;20069;-66
2022/11/16 15:09:29;;;;;;;4.30;1.05;;;;;;;;;;5005153;28;20050;-67
2022/11/16 15:14:45;;;;;;;3.03;1.20;;;;;;;;;;5007488;28;20175;-67
2022/11/16 15:17:19;;;;;;;3.50;1.30;;;;;;;;;;5009346;28;20491;-65
2022/11/16 15:19:59;;;;;;;7.38;1.90;;;;;;;;;;5008131;28;20065;-66
2022/11/16 15:22:28;;;;;;;4.75;1.33;;;;;;;;;;5009257;28;20536;-66
2022/11/16 15:24:56;;;;;;;5.07;1.60;;;;;;;;;;5009213;28;20057;-67
2022/11/16 15:27:35;;;;;;;3.08;1.40;;;;;;;;;;5008969;28;20037;-67
2022/11/16 15:30:13;;;;;;;3.42;1.38;;;;;;;;;;5012074;28;20133;-67
2022/11/16 15:32:43;;;;;;;3.15;1.40;;;;;;;;;;5010905;28;20505;-67
2022/11/16 15:35:36;;;;;;;3.67;1.65;;;;;;;;;;5009384;28;20034;-65
2022/11/16 15:38:12;;;;;;;5.38;1.58;;;;;;;;;;5005467;28;20050;-66
2022/11/16 15:40:39;;;;;;;4.75;1.42;;;;;;;;;;5008967;28;20141;-66
2022/11/16 15:43:06;;;;;;;4.45;1.42;;;;;;;;;;5012450;28;20392;-65
2022/11/16 15:45:33;;;;;;;4.28;1.27;;;;;;;;;;5007691;28;20058;-65
2022/11/16 15:48:02;;;;;;;3.67;1.58;;;;;;;;;;5010199;28;20167;-65